Time;durP1;ratioP1;P1;durP2;ratioP2;P2;SDS_P1;SDS_P2;PMS_P1;PMS_P2;Temp;Humidity;BMP_temperature;BMP_pressure;BME280_temperature;BME280_humidity;BME280_pressure;Samples;Min_cycle;Max_cycle;Signal;HPM_P1;HPM_P2
2021/01/18 00:00:16;;;;;;;30.33;11.63;;;;;;;-6.52;62.79;100602.44;121742;1141;104335;-77
2021/01/18 00:03:05;;;;;;;26.37;9.47;;;;;;;-6.57;63.30;100615.48;121691;1140;104455;-75
2021/01/18 00:05:34;;;;;;;25.20;9.00;;;;;;;-6.66;63.63;100615.41;121757;1139;104335;-76
2021/01/18 00:08:03;;;;;;;27.37;9.43;;;;;;;-6.74;63.14;100611.16;121711;1141;104342;-76
2021/01/18 00:10:33;;;;;;;24.83;9.37;;;;;;;-6.81;62.58;100612.13;121745;1141;104397;-76
2021/01/18 00:13:02;;;;;;;27.75;9.80;;;;;;;-6.86;63.03;100626.06;121738;1140;104506;-75
2021/01/18 00:15:31;;;;;;;24.77;8.20;;;;;;;-6.91;62.38;100632.34;121760;1141;104342;-76
2021/01/18 00:18:00;;;;;;;27.27;9.90;;;;;;;-6.96;62.34;100636.95;121709;1140;106012;-77
2021/01/18 00:20:29;;;;;;;25.53;9.20;;;;;;;-6.98;62.06;100638.44;121728;1141;104337;-77
2021/01/18 00:22:58;;;;;;;28.20;10.03;;;;;;;-6.98;63.34;100646.09;121429;1141;104375;-76
2021/01/18 00:25:28;;;;;;;30.53;10.97;;;;;;;-6.99;62.44;100648.48;121745;1141;104343;-76
2021/01/18 00:27:56;;;;;;;29.93;10.50;;;;;;;-7.06;63.00;100652.00;121699;1141;104901;-77
2021/01/18 00:30:26;;;;;;;30.83;10.90;;;;;;;-7.14;62.09;100645.17;121753;1141;104457;-75
2021/01/18 00:32:58;;;;;;;29.67;12.07;;;;;;;-7.26;62.64;100640.58;121715;1141;104383;-75
2021/01/18 00:35:28;;;;;;;29.27;10.87;;;;;;;-7.29;62.20;100639.31;121714;1141;104352;-76
2021/01/18 00:37:58;;;;;;;31.17;10.47;;;;;;;-7.32;62.00;100646.63;121716;1141;104435;-76
2021/01/18 00:40:28;;;;;;;31.90;11.20;;;;;;;-7.42;62.71;100640.56;121703;1141;102407;-76
2021/01/18 00:42:57;;;;;;;33.53;11.80;;;;;;;-7.46;62.76;100642.62;121749;1141;104336;-77
2021/01/18 00:45:26;;;;;;;31.07;10.77;;;;;;;-7.51;62.84;100642.11;121736;1141;104372;-75
2021/01/18 00:47:56;;;;;;;34.47;13.13;;;;;;;-7.55;63.44;100639.06;121723;1141;104330;-76
2021/01/18 00:50:28;;;;;;;31.47;12.73;;;;;;;-7.61;63.55;100637.63;121719;1141;104464;-77
2021/01/18 00:52:59;;;;;;;31.90;11.47;;;;;;;-7.63;63.29;100641.67;121720;1141;104788;-76
2021/01/18 00:55:28;;;;;;;27.77;9.67;;;;;;;-7.65;63.60;100647.33;121735;1141;104214;-76
2021/01/18 00:58:14;;;;;;;36.10;12.50;;;;;;;-7.68;62.62;100637.72;121677;1141;103497;-76
2021/01/18 01:00:48;;;;;;;34.63;13.77;;;;;;;-7.71;62.10;100642.48;121721;1141;104365;-75
2021/01/18 01:03:17;;;;;;;33.30;12.57;;;;;;;-7.69;63.15;100643.55;121720;1141;104483;-75
2021/01/18 01:05:46;;;;;;;34.30;12.47;;;;;;;-7.69;63.60;100648.64;121675;1141;104436;-75
2021/01/18 01:08:15;;;;;;;30.33;11.70;;;;;;;-7.68;62.82;100646.98;121721;1140;104344;-75
2021/01/18 01:10:44;;;;;;;30.40;11.27;;;;;;;-7.69;63.48;100645.20;121498;1141;104914;-76
2021/01/18 01:13:14;;;;;;;37.13;14.27;;;;;;;-7.75;62.84;100642.88;121774;1141;104432;-75
2021/01/18 01:15:43;;;;;;;32.57;11.43;;;;;;;-7.78;63.59;100652.73;121409;1141;104354;-76
2021/01/18 01:18:12;;;;;;;32.50;12.20;;;;;;;-7.81;63.46;100647.30;121722;1141;104366;-77
2021/01/18 01:20:41;;;;;;;29.80;10.40;;;;;;;-7.83;62.07;100657.31;121774;1141;104332;-77
2021/01/18 01:23:10;;;;;;;38.10;13.63;;;;;;;-7.81;62.44;100649.84;121730;1141;104339;-75
2021/01/18 01:25:39;;;;;;;35.57;13.60;;;;;;;-7.77;62.92;100657.09;121727;1141;104380;-75
2021/01/18 01:28:08;;;;;;;32.17;13.07;;;;;;;-7.77;63.64;100657.99;121693;1141;104362;-75
2021/01/18 01:30:38;;;;;;;32.63;10.50;;;;;;;-7.78;63.63;100661.27;121395;1141;104355;-74
2021/01/18 01:33:07;;;;;;;38.57;14.63;;;;;;;-7.82;62.18;100658.20;121736;1141;104337;-75
2021/01/18 01:35:36;;;;;;;30.27;11.30;;;;;;;-7.85;62.87;100657.87;121686;1140;104338;-74
2021/01/18 01:38:06;;;;;;;35.30;13.93;;;;;;;-7.91;63.39;100653.02;121755;1141;104332;-74
2021/01/18 01:40:35;;;;;;;38.90;14.90;;;;;;;-7.91;63.59;100657.22;121710;1141;104417;-75
2021/01/18 01:43:05;;;;;;;38.40;14.13;;;;;;;-7.88;63.79;100652.44;121655;1141;103121;-76
2021/01/18 01:45:34;;;;;;;35.87;13.67;;;;;;;-7.85;62.79;100662.96;121711;1141;104345;-76
2021/01/18 01:48:04;;;;;;;31.60;11.85;;;;;;;-7.87;63.79;100664.45;121691;1141;104342;-75
2021/01/18 01:50:36;;;;;;;35.40;12.43;;;;;;;-7.89;63.14;100660.83;121744;1141;104436;-74
2021/01/18 01:53:15;;;;;;;32.13;12.60;;;;;;;-7.91;62.64;100665.77;121753;1141;104660;-75
2021/01/18 01:55:45;;;;;;;33.80;12.80;;;;;;;-7.93;63.78;100662.15;121695;1141;104559;-74
2021/01/18 01:58:14;;;;;;;33.53;12.60;;;;;;;-7.93;63.33;100661.22;121696;1141;104335;-75
2021/01/18 02:00:44;;;;;;;34.67;12.70;;;;;;;-7.96;63.47;100660.16;121619;1140;104789;-75
2021/01/18 02:03:21;;;;;;;35.63;13.90;;;;;;;-7.96;63.46;100657.61;121728;1141;104789;-76
2021/01/18 02:05:53;;;;;;;38.93;14.30;;;;;;;-7.99;62.63;100657.27;121765;1141;104910;-76
2021/01/18 02:08:23;;;;;;;35.93;13.13;;;;;;;-8.00;62.99;100662.19;121721;1141;104357;-76
2021/01/18 02:10:52;;;;;;;39.57;12.00;;;;;;;-8.00;63.74;100665.63;121722;1141;104335;-76
2021/01/18 02:13:26;;;;;;;33.70;12.83;;;;;;;-8.01;63.81;100665.46;121672;1141;104342;-75
2021/01/18 02:16:04;;;;;;;35.00;13.43;;;;;;;-8.01;63.06;100663.84;121787;1141;104339;-75
2021/01/18 02:18:45;;;;;;;33.73;13.27;;;;;;;-8.01;63.76;100661.30;121704;1139;104358;-75
2021/01/18 02:21:40;;;;;;;32.37;10.73;;;;;;;-8.02;63.16;100667.11;121696;1141;104460;-77
2021/01/18 02:24:22;;;;;;;;;;;;;;;-8.01;63.88;100675.65;121499;1141;104808;-75
2021/01/18 02:27:21;;;;;;;31.77;11.43;;;;;;;-8.05;62.16;100678.61;121362;1141;104337;-76
2021/01/18 02:30:12;;;;;;;27.93;10.70;;;;;;;-8.12;63.00;100682.09;121741;1141;104359;-75
2021/01/18 02:33:03;;;;;;;29.93;10.33;;;;;;;-8.17;62.55;100678.13;121694;1141;104360;-75
2021/01/18 02:35:55;;;;;;;28.50;10.37;;;;;;;-8.23;63.77;100685.08;121689;1141;104336;-74
2021/01/18 02:38:29;;;;;;;28.27;10.47;;;;;;;-8.29;63.66;100681.84;121713;1141;104331;-76
2021/01/18 02:41:15;;;;;;;26.23;9.27;;;;;;;-8.31;62.50;100684.22;121710;1141;104324;-75
2021/01/18 02:43:49;;;;;;;31.85;11.00;;;;;;;-8.33;62.42;100686.59;121710;1141;104838;-74
2021/01/18 02:46:21;;;;;;;28.20;10.37;;;;;;;-8.36;63.13;100687.89;121431;1141;104364;-75
2021/01/18 02:48:50;;;;;;;29.80;11.83;;;;;;;-8.40;62.48;100689.16;121689;1141;104364;-76
2021/01/18 02:51:23;;;;;;;31.33;10.20;;;;;;;-8.41;63.77;100695.01;121710;1141;104386;-75
2021/01/18 02:54:02;;;;;;;28.80;9.67;;;;;;;-8.41;62.76;100692.47;121715;1141;104332;-75
2021/01/18 02:56:34;;;;;;;31.27;9.93;;;;;;;-8.44;63.33;100694.70;121739;1141;104430;-74
2021/01/18 02:59:04;;;;;;;25.27;9.03;;;;;;;-8.46;63.17;100695.24;121706;1141;104562;-75
2021/01/18 03:01:49;;;;;;;27.37;10.60;;;;;;;-8.50;62.92;100702.53;121636;1141;104332;-75
2021/01/18 03:04:30;;;;;;;31.70;9.93;;;;;;;-8.52;64.31;100688.73;121706;1141;104364;-75
2021/01/18 03:07:06;;;;;;;34.33;10.47;;;;;;;-8.54;63.47;100691.83;121696;1141;104335;-75
2021/01/18 03:09:42;;;;;;;30.77;10.77;;;;;;;-8.54;63.46;100697.84;121728;1141;104470;-75
2021/01/18 03:12:12;;;;;;;30.17;10.27;;;;;;;-8.53;63.87;100698.74;121699;1141;104336;-76
2021/01/18 03:14:47;;;;;;;30.77;11.57;;;;;;;-8.51;63.68;100699.81;121690;1141;104430;-76
2021/01/18 03:17:27;;;;;;;32.83;11.47;;;;;;;-8.50;63.27;100706.72;121709;1141;104335;-74
2021/01/18 03:19:58;;;;;;;29.20;10.83;;;;;;;-8.50;64.00;100699.98;121699;1141;104334;-76
2021/01/18 03:22:28;;;;;;;28.93;11.57;;;;;;;-8.49;64.09;100703.45;121466;1141;104346;-75
2021/01/18 03:25:01;;;;;;;28.75;9.10;;;;;;;-8.50;63.65;100711.81;121749;1141;104561;-75
2021/01/18 03:27:44;;;;;;;25.43;8.88;;;;;;;-8.53;63.80;100707.27;121687;1141;104457;-75
2021/01/18 03:30:15;;;;;;;33.83;12.37;;;;;;;-8.54;63.55;100697.84;121690;1141;104436;-75
2021/01/18 03:32:50;;;;;;;33.37;11.63;;;;;;;-8.57;63.23;100697.50;121746;1140;104363;-75
2021/01/18 03:35:20;;;;;;;31.53;11.90;;;;;;;-8.53;63.20;100696.20;121737;1141;104436;-75
2021/01/18 03:37:54;;;;;;;34.53;12.53;;;;;;;-8.47;63.29;100707.08;121709;1141;104439;-75
2021/01/18 03:40:25;;;;;;;31.20;11.87;;;;;;;-8.42;63.57;100705.02;121671;1141;104364;-75
2021/01/18 03:42:59;;;;;;;29.90;11.13;;;;;;;-8.43;63.26;100708.31;121654;1141;104367;-76
2021/01/18 03:45:30;;;;;;;24.20;9.05;;;;;;;-8.47;63.67;100707.08;121607;1141;104453;-75
2021/01/18 03:47:59;;;;;;;30.30;10.30;;;;;;;-8.45;63.64;100697.97;121697;1141;104436;-75
2021/01/18 03:50:28;;;;;;;26.50;11.13;;;;;;;-8.45;63.69;100703.05;121716;1141;104361;-74
2021/01/18 03:52:57;;;;;;;33.40;11.27;;;;;;;-8.41;63.83;100702.64;121677;1141;104461;-75
2021/01/18 03:55:26;;;;;;;33.80;11.50;;;;;;;-8.36;64.01;100705.71;121698;1141;104341;-75
2021/01/18 03:57:56;;;;;;;30.10;10.00;;;;;;;-8.33;63.48;100709.50;121734;1141;104524;-75
2021/01/18 04:00:28;;;;;;;26.23;8.87;;;;;;;-8.34;63.26;100706.78;121700;1141;104470;-78
2021/01/18 04:02:58;;;;;;;29.30;11.27;;;;;;;-8.41;63.62;100707.73;121704;1141;104489;-77
2021/01/18 04:05:29;;;;;;;28.90;10.67;;;;;;;-8.40;63.81;100709.53;121723;1139;104365;-76
2021/01/18 04:07:59;;;;;;;31.03;11.83;;;;;;;-8.44;63.63;100707.42;121733;1141;104341;-76
2021/01/18 04:10:30;;;;;;;34.73;12.50;;;;;;;-8.42;63.95;100711.00;121747;1141;104407;-76
2021/01/18 04:12:59;;;;;;;26.47;9.20;;;;;;;-8.38;63.87;100717.34;121727;1141;104364;-77
2021/01/18 04:15:28;;;;;;;27.57;10.70;;;;;;;-8.43;63.29;100723.59;121692;1141;104348;-76
2021/01/18 04:17:58;;;;;;;34.40;12.33;;;;;;;-8.48;63.05;100724.72;121715;1141;104383;-76
2021/01/18 04:20:27;;;;;;;31.17;11.13;;;;;;;-8.50;63.06;100730.52;121731;1140;104426;-75
2021/01/18 04:22:58;;;;;;;33.53;12.43;;;;;;;-8.47;63.45;100719.80;121756;1141;104329;-75
2021/01/18 04:25:28;;;;;;;34.07;12.07;;;;;;;-8.42;63.27;100722.84;121721;1141;104464;-76
2021/01/18 04:27:59;;;;;;;29.00;10.83;;;;;;;-8.43;64.29;100728.68;121690;1141;104338;-76
2021/01/18 04:30:32;;;;;;;35.20;12.60;;;;;;;-8.40;64.09;100724.80;121687;1141;104464;-75
2021/01/18 04:33:04;;;;;;;30.30;12.13;;;;;;;-8.32;63.71;100734.23;121710;1141;104524;-75
2021/01/18 04:35:35;;;;;;;31.70;11.93;;;;;;;-8.26;64.17;100733.11;121680;1141;104404;-76
2021/01/18 04:38:05;;;;;;;30.93;12.13;;;;;;;-8.24;64.68;100742.74;121619;1141;104452;-77
2021/01/18 04:40:35;;;;;;;30.77;11.67;;;;;;;-8.22;63.68;100738.72;121643;1141;104343;-76
2021/01/18 04:43:05;;;;;;;44.20;16.25;;;;;;;-8.25;63.84;100746.02;121716;1141;104330;-77
2021/01/18 04:45:35;;;;;;;44.97;15.43;;;;;;;-8.27;63.78;100747.48;121660;1141;104345;-76
2021/01/18 04:48:05;;;;;;;51.97;18.90;;;;;;;-8.25;63.73;100740.92;121580;1141;104356;-77
2021/01/18 04:50:34;;;;;;;38.90;13.37;;;;;;;-8.21;63.75;100739.62;121725;1141;104370;-77
2021/01/18 04:53:13;;;;;;;38.43;13.20;;;;;;;-8.21;64.94;100743.09;121675;1141;104435;-78
2021/01/18 04:56:12;;;;;;;32.47;11.50;;;;;;;-8.20;64.76;100738.89;121707;1141;104459;-79
2021/01/18 04:58:49;;;;;;;33.77;12.60;;;;;;;-8.24;63.45;100749.45;121695;1141;104341;-79
2021/01/18 05:01:29;;;;;;;35.93;11.83;;;;;;;-8.26;64.07;100750.93;121886;1141;104342;-78
2021/01/18 05:04:05;;;;;;;36.07;12.93;;;;;;;-8.26;64.22;100761.11;121698;1141;104463;-77
2021/01/18 05:06:46;;;;;;;28.40;10.83;;;;;;;-8.27;64.80;100754.20;121743;1141;104387;-78
2021/01/18 05:09:26;;;;;;;28.53;10.33;;;;;;;-8.27;64.27;100764.38;121470;1141;104501;-80
2021/01/18 05:11:56;;;;;;;35.90;13.73;;;;;;;-8.28;64.48;100762.59;121727;1141;104358;-78
2021/01/18 05:14:26;;;;;;;32.70;11.87;;;;;;;-8.28;64.11;100755.84;121636;1141;104356;-76
2021/01/18 05:16:57;;;;;;;36.37;13.53;;;;;;;-8.22;64.38;100758.20;121631;1141;104337;-79
2021/01/18 05:19:28;;;;;;;36.47;13.33;;;;;;;-8.18;64.43;100758.72;121704;1141;104342;-78
2021/01/18 05:21:57;;;;;;;36.73;14.07;;;;;;;-8.14;64.89;100760.86;121699;1141;104371;-79
2021/01/18 05:24:26;;;;;;;33.30;13.37;;;;;;;-8.13;65.10;100760.13;121526;1141;104378;-78
2021/01/18 05:27:07;;;;;;;36.07;13.23;;;;;;;-8.12;65.10;100768.67;121474;1141;104457;-78
2021/01/18 05:29:38;;;;;;;30.37;10.37;;;;;;;-8.08;64.94;100767.40;122150;1141;102642;-78
2021/01/18 05:32:22;;;;;;;34.80;13.47;;;;;;;-8.08;64.62;100770.84;121466;1141;104521;-78
2021/01/18 05:34:52;;;;;;;34.03;12.75;;;;;;;-8.03;64.32;100764.62;121587;1141;104359;-78
2021/01/18 05:37:21;;;;;;;30.27;11.70;;;;;;;-8.03;64.71;100772.26;121437;1141;104805;-78
2021/01/18 05:39:50;;;;;;;34.80;12.60;;;;;;;-8.03;65.07;100769.70;121685;1141;104404;-77
2021/01/18 05:42:22;;;;;;;33.33;12.77;;;;;;;-8.00;65.33;100772.61;121722;1141;104341;-78
2021/01/18 05:44:52;;;;;;;31.47;11.30;;;;;;;-7.99;65.27;100773.53;122054;1141;104495;-77
2021/01/18 05:47:21;;;;;;;36.97;12.00;;;;;;;-8.01;64.90;100770.81;121569;1141;104342;-78
2021/01/18 05:49:51;;;;;;;34.70;13.00;;;;;;;-7.98;65.06;100777.88;121517;1141;104335;-79
2021/01/18 05:52:31;;;;;;;33.03;12.33;;;;;;;-7.95;64.47;100778.22;121495;1141;104436;-77
2021/01/18 05:55:18;;;;;;;38.40;13.40;;;;;;;-7.88;64.12;100779.80;121218;1141;104432;-76
2021/01/18 05:57:57;;;;;;;35.80;13.63;;;;;;;-7.83;65.73;100784.70;121528;1141;104413;-76
2021/01/18 06:00:29;;;;;;;34.53;12.77;;;;;;;-7.79;64.71;100789.41;121395;1141;104363;-77
2021/01/18 06:03:00;;;;;;;36.00;11.93;;;;;;;-7.76;65.40;100788.83;121188;1141;104519;-76
2021/01/18 06:05:31;;;;;;;29.20;11.17;;;;;;;-7.75;65.59;100787.21;121261;1141;104401;-76
2021/01/18 06:08:11;;;;;;;32.83;11.53;;;;;;;-7.76;65.54;100799.02;121541;1141;104467;-77
2021/01/18 06:10:41;;;;;;;26.33;9.30;;;;;;;-7.78;65.19;100803.95;121495;1141;104579;-76
2021/01/18 06:13:23;;;;;;;26.93;9.87;;;;;;;-7.79;65.70;100802.16;121416;1141;104337;-77
2021/01/18 06:16:12;;;;;;;25.07;7.90;;;;;;;-7.86;64.18;100809.83;121124;1141;104435;-76
2021/01/18 06:18:42;;;;;;;21.77;7.07;;;;;;;-7.95;64.06;100806.23;121530;1141;104422;-76
2021/01/18 06:21:12;;;;;;;30.77;9.20;;;;;;;-8.04;65.08;100805.19;121387;1141;104485;-79
2021/01/18 06:23:41;;;;;;;23.40;8.03;;;;;;;-8.12;63.70;100806.87;121320;1141;104543;-79
2021/01/18 06:26:10;;;;;;;22.03;7.57;;;;;;;-8.15;64.29;100814.16;121415;1141;104376;-78
2021/01/18 06:28:41;;;;;;;25.93;8.03;;;;;;;-8.17;64.30;100808.89;121616;1141;104359;-78
2021/01/18 06:31:12;;;;;;;19.47;6.70;;;;;;;-8.18;64.27;100813.80;121196;1141;104390;-76
2021/01/18 06:33:44;;;;;;;20.07;6.67;;;;;;;-8.19;64.75;100817.11;121607;1141;104518;-76
2021/01/18 06:36:17;;;;;;;19.83;6.63;;;;;;;-8.22;64.08;100816.75;121416;1141;104354;-77
2021/01/18 06:38:52;;;;;;;21.80;7.07;;;;;;;-8.21;63.68;100828.73;121791;1141;104358;-75
2021/01/18 06:41:27;;;;;;;21.30;7.23;;;;;;;-8.25;63.87;100816.41;121057;1141;104342;-77
2021/01/18 06:43:57;;;;;;;19.83;6.13;;;;;;;-8.25;64.12;100816.41;121438;1141;104383;-78
2021/01/18 06:46:29;;;;;;;19.53;5.93;;;;;;;-8.26;64.66;100825.66;121348;1141;104359;-76
2021/01/18 06:48:59;;;;;;;19.45;6.55;;;;;;;-8.30;63.76;100826.06;121373;1141;104358;-78
2021/01/18 06:51:29;;;;;;;20.83;7.53;;;;;;;-8.32;64.26;100824.95;121744;1141;104582;-76
2021/01/18 06:54:00;;;;;;;18.93;6.50;;;;;;;-8.29;63.95;100829.50;121429;1141;104465;-76
2021/01/18 06:56:55;;;;;;;19.03;6.47;;;;;;;-8.29;64.97;100837.14;121425;1140;104365;-77
2021/01/18 06:59:40;;;;;;;21.20;7.10;;;;;;;-8.25;64.78;100839.31;121368;1141;104344;-79
2021/01/18 07:02:26;;;;;;;20.70;7.23;;;;;;;-8.18;64.22;100847.84;121036;1141;104550;-79
2021/01/18 07:05:07;;;;;;;16.73;6.13;;;;;;;-8.14;64.50;100851.63;121966;1141;104371;-77
2021/01/18 07:07:39;;;;;;;22.50;7.03;;;;;;;-8.18;64.66;100857.09;121461;1140;104385;-78
2021/01/18 07:10:10;;;;;;;19.93;6.77;;;;;;;-8.22;64.60;100849.85;121509;1141;104553;-77
2021/01/18 07:12:41;;;;;;;22.80;6.87;;;;;;;-8.25;63.96;100859.69;121532;1141;104339;-80
2021/01/18 07:15:12;;;;;;;19.40;6.73;;;;;;;-8.24;63.99;100858.93;121396;1141;104377;-78
2021/01/18 07:17:56;;;;;;;25.70;7.80;;;;;;;-8.18;64.39;100858.02;121341;1141;104393;-78
2021/01/18 07:20:27;;;;;;;18.15;4.75;;;;;;;-8.07;64.58;100864.34;121518;1141;104452;-79
2021/01/18 07:23:24;;;;;;;21.70;6.53;;;;;;;-8.13;63.56;100859.45;121489;1141;104785;-77
2021/01/18 07:26:12;;;;;;;24.63;8.07;;;;;;;-8.14;64.40;100861.81;121501;1141;103210;-77
2021/01/18 07:28:50;;;;;;;17.20;5.73;;;;;;;-8.18;62.51;100859.64;121473;1141;104361;-76
2021/01/18 07:31:23;;;;;;;20.27;7.17;;;;;;;-8.25;63.36;100867.32;121489;1141;104448;-79
2021/01/18 07:33:52;;;;;;;16.77;5.90;;;;;;;-8.24;62.94;100864.95;121354;1141;104362;-78
2021/01/18 07:36:26;;;;;;;16.67;5.80;;;;;;;-8.24;63.60;100876.75;121277;1141;104352;-78
2021/01/18 07:38:57;;;;;;;20.33;7.03;;;;;;;-8.24;63.95;100879.30;123349;1140;102078;-77
2021/01/18 07:41:36;;;;;;;21.53;7.67;;;;;;;-8.18;64.10;100880.01;123341;1139;102171;-76
2021/01/18 07:44:41;;;;;;;23.83;7.67;;;;;;;-8.13;63.98;100892.55;122204;1139;104423;-78
2021/01/18 07:47:13;;;;;;;20.95;6.62;;;;;;;-8.11;63.40;100892.73;121225;1141;104439;-81
2021/01/18 07:49:47;;;;;;;20.13;6.50;;;;;;;-8.11;63.14;100895.27;121402;1141;104449;-77
2021/01/18 07:52:30;;;;;;;18.27;6.43;;;;;;;-8.11;62.69;100905.46;121294;1141;104353;-78
2021/01/18 07:55:01;;;;;;;19.37;6.53;;;;;;;-8.03;63.69;100901.25;121349;1141;104364;-77
2021/01/18 07:57:38;;;;;;;22.57;6.67;;;;;;;-7.99;64.09;100901.78;121395;1141;104382;-78
2021/01/18 08:00:27;;;;;;;19.77;7.27;;;;;;;-7.96;63.43;100904.69;121511;1141;104473;-78
2021/01/18 08:03:27;;;;;;;17.37;6.20;;;;;;;-7.94;64.25;100907.41;121498;1141;104404;-77
2021/01/18 08:06:09;;;;;;;20.07;6.70;;;;;;;-7.90;63.85;100913.75;121270;1141;104406;-74
2021/01/18 08:08:40;;;;;;;23.70;8.10;;;;;;;-7.98;62.73;100917.97;121512;1141;104335;-78
2021/01/18 08:11:18;;;;;;;19.33;6.57;;;;;;;-8.00;63.40;100916.89;121400;1141;104412;-77
2021/01/18 08:13:56;;;;;;;23.40;7.77;;;;;;;-7.97;64.34;100909.60;122539;1140;101823;-77
2021/01/18 08:16:40;;;;;;;22.50;7.23;;;;;;;-7.90;63.48;100909.59;121713;1141;104333;-79
2021/01/18 08:19:19;;;;;;;19.40;6.55;;;;;;;-7.90;63.98;100912.13;122833;1140;102366;-78
2021/01/18 08:22:04;;;;;;;21.20;7.10;;;;;;;-7.90;63.06;100908.66;122730;1141;102059;-80
2021/01/18 08:24:54;;;;;;;24.27;7.63;;;;;;;-7.87;64.35;100907.36;121772;1141;104307;-79
2021/01/18 08:27:41;;;;;;;22.30;7.87;;;;;;;-7.79;63.45;100911.72;120985;1141;104435;-77
2021/01/18 08:30:28;;;;;;;21.10;7.67;;;;;;;-7.72;63.66;100912.42;121224;1141;104422;-77
2021/01/18 08:33:00;;;;;;;17.90;6.67;;;;;;;-7.65;64.25;100909.81;121779;1141;102756;-77
2021/01/18 08:35:36;;;;;;;24.03;7.83;;;;;;;-7.68;63.52;100917.11;121692;1140;104455;-79
2021/01/18 08:38:21;;;;;;;18.87;6.67;;;;;;;-7.74;63.33;100912.23;121383;1141;104345;-78
2021/01/18 08:40:52;;;;;;;20.90;7.40;;;;;;;-7.80;63.39;100911.54;121344;1141;104353;-77
2021/01/18 08:43:22;;;;;;;21.03;6.73;;;;;;;-7.82;64.31;100913.91;121436;1141;104374;-76
2021/01/18 08:45:55;;;;;;;24.37;7.90;;;;;;;-7.85;64.37;100903.38;121339;1141;104451;-79
2021/01/18 08:48:29;;;;;;;20.43;7.70;;;;;;;-7.79;63.86;100904.07;121394;1141;104326;-77
2021/01/18 08:50:59;;;;;;;22.85;8.25;;;;;;;-7.75;63.80;100895.13;121495;1141;104364;-78
2021/01/18 08:53:32;;;;;;;21.77;8.17;;;;;;;-7.68;64.22;100899.27;121558;1141;104348;-79
2021/01/18 08:56:04;;;;;;;25.87;7.13;;;;;;;-7.61;64.44;100905.23;121586;1141;104490;-79
2021/01/18 08:58:41;;;;;;;20.23;6.70;;;;;;;-7.65;62.97;100914.91;121285;1139;104405;-75
2021/01/18 09:01:14;;;;;;;16.23;5.30;;;;;;;-7.72;63.25;100909.87;121569;1141;104551;-76
2021/01/18 09:03:55;;;;;;;12.10;4.63;;;;;;;-7.84;62.87;100910.26;121297;1141;104330;-77
2021/01/18 09:06:25;;;;;;;16.57;5.67;;;;;;;-7.88;63.75;100903.02;121642;1141;104448;-75
2021/01/18 09:09:04;;;;;;;20.30;5.80;;;;;;;-7.85;63.83;100899.89;121515;1141;104348;-78
2021/01/18 09:11:39;;;;;;;19.00;7.13;;;;;;;-7.83;63.96;100906.98;121622;1141;104764;-77
2021/01/18 09:14:10;;;;;;;19.00;6.30;;;;;;;-7.81;62.42;100913.16;121367;1140;104371;-78
2021/01/18 09:16:41;;;;;;;20.60;6.43;;;;;;;-7.79;63.66;100903.14;121271;1141;104358;-80
2021/01/18 09:19:11;;;;;;;16.90;5.30;;;;;;;-7.80;63.76;100898.80;121016;1141;104513;-79
2021/01/18 09:21:41;;;;;;;20.40;6.77;;;;;;;-7.74;63.92;100906.21;121407;1141;104435;-78
2021/01/18 09:24:11;;;;;;;18.87;5.93;;;;;;;-7.64;63.07;100909.98;121447;1141;104341;-79
2021/01/18 09:26:41;;;;;;;19.33;6.30;;;;;;;-7.59;62.42;100898.70;121042;1141;104378;-78
2021/01/18 09:29:11;;;;;;;20.57;6.33;;;;;;;-7.59;62.47;100900.31;121421;1141;104482;-78
2021/01/18 09:31:43;;;;;;;19.47;7.10;;;;;;;-7.60;62.04;100906.17;121183;1141;104362;-79
2021/01/18 09:34:13;;;;;;;21.25;6.80;;;;;;;-7.55;61.98;100909.23;121616;1141;104367;-77
2021/01/18 09:36:44;;;;;;;20.10;6.63;;;;;;;-7.60;63.42;100906.17;121224;1141;104380;-76
2021/01/18 09:39:33;;;;;;;21.83;7.53;;;;;;;-7.63;63.14;100903.27;121334;1141;104370;-80
2021/01/18 09:42:16;;;;;;;20.97;8.00;;;;;;;-7.62;61.81;100902.52;121299;1141;104359;-77
2021/01/18 09:44:53;;;;;;;;;;;;;;;-7.60;62.08;100906.17;121409;1139;104612;-78
2021/01/18 09:47:25;;;;;;;19.37;6.17;;;;;;;-7.60;63.27;100917.26;121237;1141;104459;-78
2021/01/18 09:50:03;;;;;;;20.77;7.33;;;;;;;-7.61;63.44;100906.89;122207;1139;104504;-78
2021/01/18 09:52:34;;;;;;;15.55;6.00;;;;;;;-7.49;61.98;100908.28;121417;1141;104436;-78
2021/01/18 09:55:11;;;;;;;24.07;7.80;;;;;;;-7.38;62.52;100908.60;121525;1141;104406;-79
2021/01/18 09:57:45;;;;;;;23.00;7.87;;;;;;;-7.30;63.17;100913.81;121722;1141;104344;-79
2021/01/18 10:00:19;;;;;;;19.32;6.95;;;;;;;-7.20;61.45;100904.64;121569;1139;104358;-78
2021/01/18 10:02:53;;;;;;;20.60;7.87;;;;;;;-7.24;62.33;100903.41;121734;1140;104406;-76
2021/01/18 10:05:32;;;;;;;22.42;7.42;;;;;;;-7.27;61.46;100909.05;122389;1140;104352;-76
2021/01/18 10:08:14;;;;;;;19.60;6.90;;;;;;;-7.23;62.79;100906.12;121371;1141;104359;-77
2021/01/18 10:10:46;;;;;;;19.93;7.23;;;;;;;-7.25;61.56;100909.23;122723;1141;102081;-78
2021/01/18 10:13:23;;;;;;;22.20;7.67;;;;;;;-7.28;61.55;100922.53;123112;1141;102150;-79
2021/01/18 10:15:54;;;;;;;21.43;7.47;;;;;;;-7.38;62.32;100909.50;123102;1142;102073;-79
2021/01/18 10:18:41;;;;;;;22.37;7.63;;;;;;;-7.31;62.44;100905.98;121907;1142;104469;-78
2021/01/18 10:21:13;;;;;;;23.03;8.00;;;;;;;-7.30;61.89;100901.06;120758;1143;104492;-78
2021/01/18 10:23:48;;;;;;;21.63;7.30;;;;;;;-7.19;62.70;100914.12;120854;1144;104422;-79
2021/01/18 10:26:21;;;;;;;20.63;6.63;;;;;;;-7.21;61.48;100901.20;120825;1143;104511;-79
2021/01/18 10:28:54;;;;;;;23.03;7.93;;;;;;;-7.27;62.54;100909.05;122741;1142;102228;-77
2021/01/18 10:31:26;;;;;;;18.13;6.67;;;;;;;-7.27;63.20;100909.05;122353;1149;103038;-77
2021/01/18 10:34:12;;;;;;;22.17;7.33;;;;;;;-7.28;62.49;100901.23;122920;1142;102264;-79
2021/01/18 10:36:43;;;;;;;21.57;7.50;;;;;;;-7.35;62.38;100901.27;123096;1142;101943;-78
2021/01/18 10:39:27;;;;;;;22.03;7.27;;;;;;;-7.38;61.69;100899.30;122940;1142;102172;-78
2021/01/18 10:42:05;;;;;;;21.73;7.53;;;;;;;-7.37;63.21;100901.09;121746;1142;104625;-78
2021/01/18 10:44:37;;;;;;;18.57;6.73;;;;;;;-7.30;62.53;100908.70;121433;1141;104393;-77
2021/01/18 10:47:07;;;;;;;18.37;6.03;;;;;;;-7.31;62.39;100909.44;121527;1141;104342;-78
2021/01/18 10:49:38;;;;;;;22.67;8.13;;;;;;;-7.36;62.40;100907.13;121403;1141;104365;-79
2021/01/18 10:52:10;;;;;;;20.53;7.00;;;;;;;-7.36;63.32;100900.37;121298;1141;104349;-78
2021/01/18 10:54:40;;;;;;;19.70;6.93;;;;;;;-7.45;61.51;100905.36;121536;1141;104364;-77
2021/01/18 10:57:23;;;;;;;20.83;7.10;;;;;;;-7.56;61.81;100899.77;121612;1140;104365;-77
2021/01/18 11:00:08;;;;;;;24.80;9.10;;;;;;;-7.56;62.88;100899.77;121164;1141;104402;-79
2021/01/18 11:02:38;;;;;;;24.30;8.10;;;;;;;-7.42;62.56;100907.33;121397;1141;104416;-78
2021/01/18 11:05:09;;;;;;;21.43;7.40;;;;;;;-7.39;61.88;100900.02;121127;1141;104393;-80
2021/01/18 11:07:45;;;;;;;24.03;7.90;;;;;;;-7.30;63.45;100898.51;121368;1141;104336;-79
2021/01/18 11:10:23;;;;;;;23.07;8.93;;;;;;;-7.24;61.79;100885.55;120948;1141;104410;-79
2021/01/18 11:13:06;;;;;;;22.10;7.67;;;;;;;-7.24;62.34;100896.64;121124;1141;104355;-76
2021/01/18 11:15:40;;;;;;;25.17;8.57;;;;;;;-7.23;61.81;100889.89;121083;1141;104812;-78
2021/01/18 11:18:13;;;;;;;21.37;7.00;;;;;;;-7.19;62.07;100894.61;121195;1140;104927;-77
2021/01/18 11:20:46;;;;;;;24.47;8.67;;;;;;;-7.17;62.23;100892.23;121248;1141;104503;-77
2021/01/18 11:23:15;;;;;;;24.37;7.87;;;;;;;-7.16;61.74;100887.30;120948;1141;104511;-78
2021/01/18 11:25:44;;;;;;;21.07;6.70;;;;;;;-7.13;61.65;100885.09;121260;1141;104345;-77
2021/01/18 11:28:19;;;;;;;20.57;6.00;;;;;;;-7.13;61.71;100886.75;121127;1141;104367;-75
2021/01/18 11:30:49;;;;;;;25.83;8.07;;;;;;;-7.19;62.21;100888.61;120917;1141;104361;-77